Time;durP1;ratioP1;P1;durP2;ratioP2;P2;SDS_P1;SDS_P2;PMS_P1;PMS_P2;Temp;Humidity;BMP_temperature;BMP_pressure;BME280_temperature;BME280_humidity;BME280_pressure;Samples;Min_cycle;Max_cycle;Signal;HPM_P1;HPM_P2
2023/07/20 00:01:55;;;;;;;11.15;5.40;;;;;;;13.90;100.00;101264.22;10414485;28;20646;-77
2023/07/20 00:06:56;;;;;;;11.68;6.53;;;;;;;13.97;100.00;101261.84;10423291;28;20048;-76
2023/07/20 00:11:56;;;;;;;7.70;5.25;;;;;;;13.98;100.00;101264.53;10420064;28;20041;-77
2023/07/20 00:16:57;;;;;;;9.15;5.93;;;;;;;13.93;100.00;101245.03;10435802;28;20045;-77
2023/07/20 00:21:57;;;;;;;8.93;5.13;;;;;;;13.80;100.00;101239.25;10433367;28;20037;-77
2023/07/20 00:26:58;;;;;;;7.75;5.10;;;;;;;13.63;100.00;101245.56;10440504;28;20041;-77
2023/07/20 00:31:59;;;;;;;12.57;4.40;;;;;;;13.38;100.00;101243.63;10441051;28;20045;-77
2023/07/20 00:36:59;;;;;;;11.55;5.30;;;;;;;13.24;100.00;101246.56;10440918;28;20040;-77
2023/07/20 00:42:00;;;;;;;8.90;4.63;;;;;;;13.18;100.00;101246.31;10439843;28;20051;-77
2023/07/20 00:47:00;;;;;;;9.68;5.60;;;;;;;13.28;100.00;101252.84;10440139;28;20051;-77
2023/07/20 00:52:01;;;;;;;7.93;4.47;;;;;;;13.34;100.00;101256.66;10436546;28;20064;-77
2023/07/20 00:57:01;;;;;;;8.60;5.85;;;;;;;13.38;100.00;101264.66;10479940;28;20049;-77
2023/07/20 01:02:02;;;;;;;6.18;4.28;;;;;;;13.30;100.00;101270.50;10450304;28;20051;-77
2023/07/20 01:07:11;;;;;;;12.07;5.30;;;;;;;13.18;100.00;101262.97;10480448;28;20051;-77
2023/07/20 01:12:26;;;;;;;12.50;6.32;;;;;;;13.16;100.00;101261.13;10465967;28;20388;-77
2023/07/20 01:17:26;;;;;;;8.65;5.60;;;;;;;13.07;100.00;101266.84;10433311;28;20048;-77
2023/07/20 01:22:54;;;;;;;14.63;5.80;;;;;;;13.00;100.00;101275.28;10455941;28;20507;-76
2023/07/20 01:28:01;;;;;;;9.23;5.72;;;;;;;12.83;100.00;101271.94;10479533;28;20052;-76
2023/07/20 01:33:02;;;;;;;9.00;5.63;;;;;;;12.73;100.00;101268.88;10473220;28;20060;-77
2023/07/20 01:38:02;;;;;;;11.32;6.47;;;;;;;12.62;100.00;101278.88;10471288;28;20047;-76
2023/07/20 01:43:03;;;;;;;16.70;6.70;;;;;;;12.54;100.00;101282.00;10453286;28;20040;-77
2023/07/20 01:48:04;;;;;;;10.25;5.70;;;;;;;12.62;100.00;101265.75;10477042;28;20502;-77
2023/07/20 01:53:04;;;;;;;16.17;10.55;;;;;;;12.74;100.00;101265.44;10479399;28;20037;-77
2023/07/20 01:58:06;;;;;;;14.85;6.65;;;;;;;12.89;100.00;101270.47;10469083;28;20097;-77
2023/07/20 02:03:06;;;;;;;14.05;8.23;;;;;;;13.01;100.00;101269.22;10489427;28;20048;-77
2023/07/20 02:08:07;;;;;;;12.30;7.32;;;;;;;12.93;100.00;101261.88;10485197;28;20571;-77
2023/07/20 02:13:07;;;;;;;15.95;6.45;;;;;;;12.82;100.00;101257.88;10474881;28;20557;-77
2023/07/20 02:18:08;;;;;;;10.02;6.50;;;;;;;12.70;100.00;101262.59;10486026;28;20192;-77
2023/07/20 02:23:09;;;;;;;10.68;5.78;;;;;;;12.65;100.00;101265.03;10471041;28;20086;-77
2023/07/20 02:28:12;;;;;;;9.63;6.25;;;;;;;12.53;100.00;101260.09;10486401;28;20044;-77
2023/07/20 02:33:13;;;;;;;12.60;7.38;;;;;;;12.62;100.00;101268.38;10479170;28;20037;-77
2023/07/20 02:38:14;;;;;;;11.40;7.68;;;;;;;12.58;100.00;101269.06;10487290;28;20040;-77
2023/07/20 02:43:14;;;;;;;13.70;7.95;;;;;;;12.55;100.00;101261.06;10481501;28;20123;-77
2023/07/20 02:48:15;;;;;;;13.82;8.68;;;;;;;12.58;100.00;101274.31;10458643;28;20036;-77
2023/07/20 02:53:15;;;;;;;15.73;7.65;;;;;;;12.79;100.00;101273.50;10487738;28;20115;-77
2023/07/20 02:58:16;;;;;;;15.80;8.48;;;;;;;12.95;100.00;101280.38;10486075;28;20391;-77
2023/07/20 03:03:16;;;;;;;11.75;7.47;;;;;;;13.10;100.00;101274.00;10485295;28;20067;-76
2023/07/20 03:08:17;;;;;;;12.20;7.18;;;;;;;13.22;100.00;101277.16;10473758;28;20638;-77
2023/07/20 03:13:17;;;;;;;18.73;7.97;;;;;;;13.33;100.00;101289.03;10482116;28;20093;-77
2023/07/20 03:18:18;;;;;;;14.95;9.63;;;;;;;13.47;100.00;101292.25;10485617;28;20089;-77
2023/07/20 03:23:18;;;;;;;12.02;7.32;;;;;;;13.61;100.00;101292.88;10473609;28;20109;-77
2023/07/20 03:28:19;;;;;;;22.08;8.48;;;;;;;13.70;100.00;101289.69;10485019;28;20048;-77
2023/07/20 03:33:19;;;;;;;15.48;7.38;;;;;;;13.77;100.00;101290.88;10485587;28;20033;-77
2023/07/20 03:38:20;;;;;;;20.42;9.35;;;;;;;13.88;100.00;101291.28;10485113;28;20119;-77
2023/07/20 03:43:21;;;;;;;22.45;10.55;;;;;;;13.93;100.00;101289.75;10446280;28;20045;-77
2023/07/20 03:48:22;;;;;;;14.93;9.52;;;;;;;13.94;100.00;101286.28;10485651;28;20036;-78
2023/07/20 03:53:23;;;;;;;14.82;10.52;;;;;;;13.87;100.00;101289.50;10451024;28;20067;-77
2023/07/20 03:58:23;;;;;;;18.95;12.35;;;;;;;13.85;100.00;101293.81;10446519;28;20044;-77
2023/07/20 04:03:26;;;;;;;21.55;11.63;;;;;;;13.89;100.00;101293.09;10477560;28;20548;-77
2023/07/20 04:08:26;;;;;;;;;;;;;;;13.91;100.00;101291.41;10465806;28;20040;-77
2023/07/20 04:13:27;;;;;;;17.38;10.27;;;;;;;13.80;100.00;101294.50;10477021;28;19921;-77
2023/07/20 04:18:28;;;;;;;16.65;10.52;;;;;;;13.50;100.00;101291.50;10470253;28;20082;-77
2023/07/20 04:23:28;;;;;;;21.08;11.63;;;;;;;13.41;100.00;101305.13;10482377;28;20043;-77
2023/07/20 04:28:30;;;;;;;20.88;12.32;;;;;;;13.59;100.00;101314.66;10473620;28;20056;-78
2023/07/20 04:33:31;;;;;;;22.85;16.05;;;;;;;13.73;100.00;101324.03;10451283;28;20191;-78
2023/07/20 04:38:31;;;;;;;28.80;15.48;;;;;;;13.75;100.00;101318.84;10435373;28;20059;-77
2023/07/20 04:43:32;;;;;;;20.98;13.93;;;;;;;13.75;100.00;101319.72;10429822;28;20041;-77
2023/07/20 04:48:32;;;;;;;23.13;13.75;;;;;;;13.74;100.00;101317.94;10449750;28;20120;-77
2023/07/20 04:53:33;;;;;;;21.83;13.07;;;;;;;13.78;100.00;101324.25;10471837;28;20041;-77
2023/07/20 04:58:33;;;;;;;20.98;12.52;;;;;;;13.91;100.00;101323.00;10509190;28;20039;-77
2023/07/20 05:03:34;;;;;;;22.00;14.88;;;;;;;14.02;100.00;101323.44;10442859;28;20623;-77
2023/07/20 05:08:34;;;;;;;20.88;12.95;;;;;;;14.18;100.00;101330.22;10410481;28;20504;-77
2023/07/20 05:13:36;;;;;;;28.05;13.93;;;;;;;14.39;100.00;101328.44;10433999;28;20396;-77
2023/07/20 05:18:36;;;;;;;20.73;12.90;;;;;;;14.59;100.00;101328.31;10423491;28;20132;-79
2023/07/20 05:23:37;;;;;;;20.63;11.88;;;;;;;14.74;100.00;101324.50;10435754;28;20049;-78
2023/07/20 05:28:37;;;;;;;19.08;12.50;;;;;;;15.09;100.00;101319.66;10442581;28;20058;-77
2023/07/20 05:33:39;;;;;;;20.63;10.83;;;;;;;15.55;100.00;101308.09;10422714;28;20049;-79
2023/07/20 05:38:39;;;;;;;21.88;10.80;;;;;;;16.32;100.00;101290.34;10438526;28;20041;-77
2023/07/20 05:43:42;;;;;;;19.50;11.65;;;;;;;17.03;100.00;101266.00;10442367;28;20079;-77
2023/07/20 05:48:42;;;;;;;13.35;10.15;;;;;;;17.97;100.00;101248.06;10437557;28;20088;-75
2023/07/20 05:53:43;;;;;;;11.52;7.30;;;;;;;17.97;100.00;101248.06;10434197;28;20033;-75
2023/07/20 05:58:43;;;;;;;14.07;10.87;;;;;;;18.29;100.00;101253.25;10417515;28;20477;-75
2023/07/20 06:03:44;;;;;;;12.97;9.23;;;;;;;18.07;100.00;101272.16;10443330;28;20040;-75
2023/07/20 06:08:45;;;;;;;12.30;10.27;;;;;;;17.82;100.00;101280.38;10437149;28;20047;-75
2023/07/20 06:13:46;;;;;;;14.45;10.90;;;;;;;17.10;100.00;101305.84;10444870;28;20039;-75
2023/07/20 06:18:46;;;;;;;14.95;9.85;;;;;;;16.50;100.00;101323.47;10406041;28;20099;-76
2023/07/20 06:23:47;;;;;;;23.83;11.10;;;;;;;16.82;100.00;101318.25;10429956;28;20128;-77
2023/07/20 06:28:48;;;;;;;11.73;9.23;;;;;;;17.84;100.00;101321.00;10429870;28;20121;-76
2023/07/20 06:33:48;;;;;;;10.80;8.35;;;;;;;19.59;100.00;101283.19;10407760;28;20060;-77
2023/07/20 06:38:49;;;;;;;9.37;6.60;;;;;;;20.72;100.00;101286.63;10421873;28;20048;-77
2023/07/20 06:43:49;;;;;;;9.57;6.77;;;;;;;20.47;100.00;101292.50;10442691;28;20043;-78
2023/07/20 06:48:50;;;;;;;8.83;6.77;;;;;;;18.95;100.00;101292.56;10395677;28;20493;-76
2023/07/20 06:53:50;;;;;;;10.30;7.57;;;;;;;17.36;100.00;101310.94;10440156;28;20520;-77
2023/07/20 06:58:51;;;;;;;13.00;7.85;;;;;;;16.30;100.00;101339.59;10438514;28;20175;-77
2023/07/20 07:03:51;;;;;;;8.15;6.63;;;;;;;15.88;100.00;101351.44;10439937;28;20045;-77
2023/07/20 07:08:52;;;;;;;9.13;7.47;;;;;;;16.40;100.00;101369.84;10442341;28;20041;-76
2023/07/20 07:13:53;;;;;;;10.95;5.25;;;;;;;17.55;100.00;101337.03;10443982;28;20037;-77
2023/07/20 07:18:53;;;;;;;8.45;3.70;;;;;;;18.60;100.00;101332.50;10444105;28;20445;-78
2023/07/20 07:23:57;;;;;;;6.90;2.80;;;;;;;20.41;100.00;101321.66;10441516;28;20063;-78
2023/07/20 07:28:57;;;;;;;7.22;3.67;;;;;;;21.75;100.00;101323.22;10423835;28;20060;-77
2023/07/20 07:33:58;;;;;;;6.47;3.27;;;;;;;21.60;100.00;101318.63;10474361;28;20056;-77
2023/07/20 07:38:59;;;;;;;3.80;1.90;;;;;;;23.76;100.00;101324.16;10440358;28;20037;-77
2023/07/20 07:44:00;;;;;;;10.02;1.83;;;;;;;25.64;100.00;101336.03;10434669;28;20899;-78
2023/07/20 07:49:00;;;;;;;1.53;1.37;;;;;;;28.01;71.49;101334.06;10443569;28;20048;-78
2023/07/20 07:54:01;;;;;;;2.60;1.27;;;;;;;28.51;65.18;101334.94;10422218;28;20456;-76
2023/07/20 07:59:02;;;;;;;4.22;1.75;;;;;;;28.77;72.35;101343.41;10410092;28;20041;-77
2023/07/20 08:04:03;;;;;;;3.78;2.00;;;;;;;26.27;75.60;101348.03;10437026;28;20042;-78
2023/07/20 08:09:04;;;;;;;5.03;1.85;;;;;;;23.71;90.50;101360.66;10434638;28;20075;-78
2023/07/20 08:14:04;;;;;;;3.40;1.10;;;;;;;23.60;92.33;101351.75;10439975;28;20045;-76
2023/07/20 08:19:05;;;;;;;1.50;0.90;;;;;;;25.67;82.40;101352.09;10452282;28;20064;-79
2023/07/20 08:24:06;;;;;;;2.30;1.40;;;;;;;27.24;69.14;101351.34;10445778;28;20060;-75
2023/07/20 08:29:06;;;;;;;3.60;1.70;;;;;;;28.52;66.16;101351.94;10411464;28;20482;-75
2023/07/20 08:34:07;;;;;;;2.60;1.83;;;;;;;29.28;62.33;101353.09;10451140;28;20034;-79
2023/07/20 08:39:07;;;;;;;3.30;2.47;;;;;;;27.32;62.89;101361.09;10399292;28;20410;-77
2023/07/20 08:44:08;;;;;;;4.65;3.22;;;;;;;23.25;88.02;101352.56;10432058;28;20489;-76
2023/07/20 08:49:09;;;;;;;4.27;3.23;;;;;;;21.07;100.00;101350.91;10418636;28;20434;-75
2023/07/20 08:54:10;;;;;;;3.50;2.27;;;;;;;24.73;97.78;101346.34;10469632;28;20039;-74
2023/07/20 08:59:11;;;;;;;;;;;;;;;27.45;75.01;101348.38;10408972;28;20056;-75
2023/07/20 09:04:12;;;;;;;3.70;2.73;;;;;;;28.39;70.12;101346.81;10421866;28;20032;-75
2023/07/20 09:09:12;;;;;;;2.97;2.07;;;;;;;28.92;63.77;101339.50;10422461;28;20052;-75
2023/07/20 09:14:13;;;;;;;3.00;1.87;;;;;;;28.45;66.53;101336.84;10410733;28;20300;-73
2023/07/20 09:19:15;;;;;;;3.97;2.73;;;;;;;25.29;74.25;101339.81;10449359;28;20053;-75
2023/07/20 09:24:20;;;;;;;6.57;2.80;;;;;;;26.15;72.36;101338.31;10443122;28;20033;-75
2023/07/20 09:29:20;;;;;;;2.75;1.48;;;;;;;26.82;73.39;101338.50;10412672;28;20033;-75
2023/07/20 09:34:21;;;;;;;3.23;1.43;;;;;;;24.93;77.99;101335.53;10446547;28;20043;-75
2023/07/20 09:39:21;;;;;;;4.07;2.73;;;;;;;22.65;87.99;101346.09;10441525;28;20699;-74
2023/07/20 09:44:22;;;;;;;3.30;2.07;;;;;;;22.54;100.00;101335.34;10420744;28;20167;-76
2023/07/20 09:49:22;;;;;;;2.83;1.97;;;;;;;24.90;79.26;101329.31;10406257;28;20906;-73
2023/07/20 09:54:23;;;;;;;2.23;1.53;;;;;;;26.74;74.12;101336.75;10432874;28;20416;-75
2023/07/20 09:59:23;;;;;;;3.57;1.90;;;;;;;27.15;69.23;101335.34;10392889;28;20087;-75
2023/07/20 10:04:24;;;;;;;2.63;1.33;;;;;;;26.31;74.69;101330.13;10430442;28;20038;-75
2023/07/20 10:09:25;;;;;;;2.47;1.80;;;;;;;28.98;67.41;101321.41;10426379;28;20049;-73
2023/07/20 10:14:26;;;;;;;3.60;1.73;;;;;;;27.32;65.94;101321.69;10441929;28;20052;-75
2023/07/20 10:19:41;;;;;;;4.40;2.00;;;;;;;24.81;71.54;101322.22;10468405;28;20047;-75
2023/07/20 10:24:45;;;;;;;2.15;1.27;;;;;;;22.36;100.00;101322.78;10486920;28;20048;-75
2023/07/20 10:29:45;;;;;;;3.15;1.20;;;;;;;24.43;93.61;101309.84;10452858;28;20025;-76
2023/07/20 10:34:55;;;;;;;1.63;1.07;;;;;;;26.75;66.67;101306.31;10469178;28;20490;-78
2023/07/20 10:39:56;;;;;;;2.80;1.98;;;;;;;25.19;70.42;101305.06;10469861;28;20048;-77
2023/07/20 10:44:56;;;;;;;3.83;1.30;;;;;;;26.14;80.97;101304.34;10485479;28;20040;-77
2023/07/20 10:49:58;;;;;;;1.00;0.83;;;;;;;26.16;68.70;101296.28;10468957;28;20098;-77
2023/07/20 10:55:02;;;;;;;1.65;1.15;;;;;;;27.90;62.86;101283.13;10468265;28;20048;-77
2023/07/20 11:00:14;;;;;;;2.33;1.40;;;;;;;26.92;61.07;101279.31;10462807;28;20033;-77
2023/07/20 11:05:47;;;;;;;;;;;;;;;27.66;57.09;101272.81;10439630;28;20075;-77
2023/07/20 11:10:47;;;;;;;3.92;1.05;;;;;;;25.31;68.52;101280.00;10447990;28;20039;-77
2023/07/20 11:15:57;;;;;;;3.60;1.30;;;;;;;27.20;68.07;101273.53;10445085;28;20467;-74
2023/07/20 11:20:58;;;;;;;2.22;1.58;;;;;;;25.13;66.43;101269.41;10501071;28;20047;-74
2023/07/20 11:26:00;;;;;;;2.30;1.20;;;;;;;26.57;60.51;101268.06;10496844;28;20480;-74
2023/07/20 11:31:00;;;;;;;1.45;0.75;;;;;;;28.35;56.44;101261.66;10462999;28;20052;-74
2023/07/20 11:36:01;;;;;;;0.77;0.60;;;;;;;29.63;56.64;101254.31;10423287;28;20045;-75
2023/07/20 11:41:04;;;;;;;0.70;0.57;;;;;;;29.23;47.52;101253.47;10436237;28;20152;-75
2023/07/20 11:46:05;;;;;;;1.98;0.90;;;;;;;29.21;53.88;101246.34;10433237;28;20603;-75
2023/07/20 11:51:06;;;;;;;2.13;1.40;;;;;;;29.59;47.33;101248.09;10431194;28;20041;-75
2023/07/20 11:56:06;;;;;;;3.50;0.93;;;;;;;29.98;53.36;101251.56;10439237;28;20113;-75
2023/07/20 12:01:07;;;;;;;2.97;0.70;;;;;;;28.41;53.69;101239.13;10424613;28;20468;-75
2023/07/20 12:06:08;;;;;;;2.53;0.90;;;;;;;30.24;50.26;101232.00;10433243;28;20047;-76
2023/07/20 12:11:09;;;;;;;2.00;0.70;;;;;;;29.80;46.34;101237.66;10428392;28;20043;-75
2023/07/20 12:16:15;;;;;;;1.30;1.00;;;;;;;28.21;49.96;101234.16;10441246;28;20045;-74
2023/07/20 12:21:15;;;;;;;5.65;1.45;;;;;;;28.11;51.29;101233.44;10414863;28;20045;-74
2023/07/20 12:26:16;;;;;;;1.63;1.10;;;;;;;27.15;52.78;101233.28;10431525;28;20037;-75
2023/07/20 12:31:16;;;;;;;4.03;1.10;;;;;;;25.60;54.61;101232.44;10427819;28;20049;-75
2023/07/20 12:36:17;;;;;;;1.27;0.93;;;;;;;25.06;59.01;101225.69;10429881;28;20758;-75
2023/07/20 12:41:18;;;;;;;1.97;1.23;;;;;;;24.98;57.65;101224.88;10410964;28;20520;-75
2023/07/20 12:46:18;;;;;;;1.23;0.70;;;;;;;24.88;62.36;101221.38;10416306;28;20093;-77
2023/07/20 12:51:19;;;;;;;1.37;0.73;;;;;;;24.47;60.62;101228.69;10418929;28;20065;-77
2023/07/20 12:56:20;;;;;;;2.53;1.70;;;;;;;24.47;64.84;101217.97;10432490;28;20132;-78
2023/07/20 13:01:21;;;;;;;1.30;1.17;;;;;;;26.21;64.21;101216.66;10460981;28;20474;-77
2023/07/20 13:06:21;;;;;;;2.63;1.25;;;;;;;25.82;65.37;101219.75;10440837;28;20439;-77
2023/07/20 13:11:22;;;;;;;6.23;1.27;;;;;;;25.60;65.82;101213.69;10432522;28;20037;-78
2023/07/20 13:16:23;;;;;;;1.53;0.87;;;;;;;24.99;74.53;101213.25;10422222;28;20047;-77
2023/07/20 13:21:24;;;;;;;1.57;0.90;;;;;;;25.17;71.72;101213.13;10420984;28;20045;-78
2023/07/20 13:26:25;;;;;;;;;;;;;;;24.79;68.50;101208.91;10441617;28;20159;-78
2023/07/20 13:31:25;;;;;;;1.77;0.90;;;;;;;24.10;72.39;101205.66;10420430;28;20012;-78
2023/07/20 13:36:26;;;;;;;1.50;1.00;;;;;;;23.86;80.76;101199.44;10435014;28;20037;-78
2023/07/20 13:41:26;;;;;;;0.97;0.90;;;;;;;23.46;80.52;101207.53;10435170;28;20033;-77
2023/07/20 13:46:27;;;;;;;1.57;1.17;;;;;;;22.91;84.39;101200.31;10476663;28;20036;-77
2023/07/20 13:51:28;;;;;;;1.17;0.80;;;;;;;22.62;83.77;101199.38;10468503;28;20037;-78
2023/07/20 13:56:28;;;;;;;1.33;0.93;;;;;;;22.50;83.31;101196.66;10428285;28;20047;-77
2023/07/20 14:01:30;;;;;;;9.03;1.90;;;;;;;22.43;81.34;101203.72;10458800;28;20075;-77
2023/07/20 14:06:32;;;;;;;18.85;6.03;;;;;;;23.13;83.55;101179.91;10447267;28;20099;-77
2023/07/20 14:11:32;;;;;;;;;;;;;;;23.66;79.20;101182.56;10414707;28;20068;-78
2023/07/20 14:16:33;;;;;;;1.08;0.93;;;;;;;23.85;85.79;101176.28;10429740;28;20059;-78
2023/07/20 14:21:33;;;;;;;6.77;1.90;;;;;;;26.38;70.40;101162.78;10427416;28;20047;-77
2023/07/20 14:26:35;;;;;;;4.93;1.37;;;;;;;27.72;61.14;101166.94;10427164;28;20103;-78
2023/07/20 14:31:35;;;;;;;2.33;1.10;;;;;;;27.63;57.00;101161.72;10451519;28;20045;-77
2023/07/20 14:36:36;;;;;;;2.10;0.60;;;;;;;27.40;65.26;101163.00;10425127;28;20033;-77
2023/07/20 14:41:37;;;;;;;2.37;0.97;;;;;;;26.29;62.05;101166.47;10436833;28;20049;-77
2023/07/20 14:46:39;;;;;;;4.37;1.10;;;;;;;24.45;65.03;101158.25;10449955;28;20755;-76
2023/07/20 14:51:43;;;;;;;4.32;1.00;;;;;;;23.50;67.69;101153.22;10437245;28;20041;-77
2023/07/20 14:56:52;;;;;;;3.42;1.63;;;;;;;23.56;76.98;101152.28;10465827;28;20075;-77
2023/07/20 15:01:52;;;;;;;1.60;0.90;;;;;;;23.60;79.00;101152.31;10464878;28;20041;-76
2023/07/20 15:06:54;;;;;;;2.03;0.90;;;;;;;23.32;71.32;101148.75;10488010;28;20051;-75
2023/07/20 15:11:56;;;;;;;1.23;0.75;;;;;;;22.67;81.32;101146.03;10500769;28;20044;-77
2023/07/20 15:16:57;;;;;;;1.95;1.15;;;;;;;22.23;77.34;101142.34;10423295;28;20052;-77
2023/07/20 15:21:57;;;;;;;6.77;1.83;;;;;;;22.18;91.86;101138.75;10437628;28;20565;-76
2023/07/20 15:26:59;;;;;;;3.33;1.33;;;;;;;22.20;96.83;101135.19;10484402;28;20144;-77
2023/07/20 15:31:59;;;;;;;4.93;0.98;;;;;;;22.40;93.16;101121.94;10484548;28;20117;-78
2023/07/20 15:37:00;;;;;;;3.77;1.30;;;;;;;22.42;99.46;101116.59;10482991;28;20028;-77
2023/07/20 15:42:00;;;;;;;2.37;1.30;;;;;;;22.51;97.59;101115.78;10500675;28;20036;-77
2023/07/20 15:47:01;;;;;;;2.77;1.47;;;;;;;22.89;96.72;101120.28;10498126;28;20037;-77
2023/07/20 15:52:01;;;;;;;2.60;0.93;;;;;;;23.22;87.10;101122.94;10480256;28;20037;-77
2023/07/20 15:57:03;;;;;;;3.63;1.27;;;;;;;23.13;83.23;101114.03;10462262;28;20037;-77
2023/07/20 16:02:04;;;;;;;2.60;1.10;;;;;;;22.78;86.58;101109.59;10470840;28;20501;-77
2023/07/20 16:07:06;;;;;;;2.10;1.20;;;;;;;22.40;87.88;101100.63;10467830;28;20049;-77
2023/07/20 16:12:07;;;;;;;3.13;1.33;;;;;;;22.02;99.76;101105.81;10481990;28;20047;-78
2023/07/20 16:17:08;;;;;;;1.30;1.20;;;;;;;21.80;100.00;101111.03;10470084;28;20037;-77
2023/07/20 16:22:11;;;;;;;1.77;1.03;;;;;;;21.73;100.00;101107.47;10444164;28;20118;-80
2023/07/20 16:27:12;;;;;;;3.88;2.08;;;;;;;21.76;99.53;101103.91;10436973;28;20227;-77
2023/07/20 16:32:12;;;;;;;2.90;1.00;;;;;;;21.74;100.00;101095.03;10437970;28;20474;-75
2023/07/20 16:37:13;;;;;;;2.93;1.60;;;;;;;21.51;100.00;101096.66;10430068;28;20646;-77
2023/07/20 16:42:14;;;;;;;2.37;1.27;;;;;;;21.50;100.00;101093.97;10452087;28;20504;-77
2023/07/20 16:47:15;;;;;;;2.77;1.47;;;;;;;21.63;100.00;101087.00;10420356;28;20370;-76
2023/07/20 16:52:16;;;;;;;2.23;1.80;;;;;;;21.39;100.00;101084.16;10421242;28;20037;-78
2023/07/20 16:57:16;;;;;;;2.73;1.57;;;;;;;21.41;100.00;101076.19;10392108;28;20052;-79
2023/07/20 17:02:20;;;;;;;2.30;1.57;;;;;;;21.26;100.00;101067.22;10420591;28;20485;-78
2023/07/20 17:07:21;;;;;;;4.40;3.42;;;;;;;21.02;100.00;101072.38;10422652;28;20045;-76
2023/07/20 17:12:21;;;;;;;2.83;2.00;;;;;;;20.74;100.00;101072.13;10426127;28;20061;-77
2023/07/20 17:17:22;;;;;;;5.22;2.10;;;;;;;20.38;100.00;101070.00;10432511;28;20063;-77
2023/07/20 17:22:22;;;;;;;7.40;3.83;;;;;;;20.21;100.00;101064.50;10422200;28;20139;-78
2023/07/20 17:27:23;;;;;;;5.28;2.65;;;;;;;20.10;100.00;101067.06;10445953;28;20215;-78
2023/07/20 17:32:23;;;;;;;5.57;2.70;;;;;;;19.88;100.00;101057.00;10447384;28;20064;-77
2023/07/20 17:37:24;;;;;;;5.95;1.70;;;;;;;19.60;100.00;101068.16;10438968;28;20397;-78
2023/07/20 17:42:24;;;;;;;7.88;1.80;;;;;;;19.36;100.00;101064.28;10405310;28;20473;-77
2023/07/20 17:47:25;;;;;;;3.28;2.42;;;;;;;19.23;100.00;101054.34;10445011;28;20489;-77
2023/07/20 17:52:26;;;;;;;2.90;1.83;;;;;;;19.08;100.00;101055.03;10447057;28;20485;-77
2023/07/20 17:57:26;;;;;;;4.07;1.90;;;;;;;18.92;100.00;101054.75;10427276;28;20124;-77
2023/07/20 18:02:27;;;;;;;2.65;1.92;;;;;;;18.83;100.00;101064.31;10448835;28;20040;-77
2023/07/20 18:07:28;;;;;;;3.88;1.92;;;;;;;18.70;100.00;101048.19;10444956;28;20469;-77
2023/07/20 18:12:30;;;;;;;3.75;2.38;;;;;;;18.63;100.00;101046.28;10428254;28;20558;-77
2023/07/20 18:17:32;;;;;;;3.13;2.10;;;;;;;18.54;100.00;101047.03;10435356;28;20053;-77
2023/07/20 18:22:33;;;;;;;5.07;3.60;;;;;;;18.46;100.00;101056.63;10446637;28;20052;-77
2023/07/20 18:27:34;;;;;;;9.20;4.25;;;;;;;18.32;100.00;101057.25;10444838;28;20290;-77
2023/07/20 18:32:35;;;;;;;4.10;1.92;;;;;;;18.20;100.00;101062.31;10425500;28;20681;-77
2023/07/20 18:37:36;;;;;;;2.42;2.13;;;;;;;18.09;100.00;101058.56;10441280;28;20051;-76
2023/07/20 18:42:36;;;;;;;5.18;2.50;;;;;;;17.96;100.00;101067.97;10451938;28;20053;-76
2023/07/20 18:47:37;;;;;;;3.58;2.30;;;;;;;17.86;100.00;101067.78;10435138;28;20041;-77
2023/07/20 18:52:38;;;;;;;3.47;2.67;;;;;;;17.75;100.00;101078.16;10441550;28;20041;-75
2023/07/20 18:57:40;;;;;;;4.63;3.47;;;;;;;17.66;100.00;101101.78;10437001;28;20037;-76
2023/07/20 19:02:41;;;;;;;4.85;3.63;;;;;;;17.68;100.00;101113.28;10430047;28;20053;-78
2023/07/20 19:07:41;;;;;;;5.15;3.95;;;;;;;17.49;100.00;101124.31;10427792;28;20509;-79
2023/07/20 19:12:42;;;;;;;12.18;5.50;;;;;;;17.29;100.00;101133.56;10425205;28;20130;-80
2023/07/20 19:17:42;;;;;;;11.98;5.80;;;;;;;17.11;100.00;101133.09;10413837;28;20064;-79
2023/07/20 19:22:43;;;;;;;7.68;5.65;;;;;;;16.64;100.00;101125.72;10436211;28;20033;-81
2023/07/20 19:27:44;;;;;;;9.13;6.53;;;;;;;16.28;100.00;101125.63;10396875;28;20044;-84
2023/07/20 19:32:45;;;;;;;6.80;5.13;;;;;;;16.00;100.00;101123.91;10434530;28;20059;-82
2023/07/20 19:37:45;;;;;;;10.68;5.93;;;;;;;15.62;100.00;101126.25;10437014;28;20048;-81
2023/07/20 19:42:49;;;;;;;10.18;5.68;;;;;;;15.34;100.00;101146.47;10416619;28;20090;-79
2023/07/20 19:47:50;;;;;;;7.95;6.70;;;;;;;15.15;100.00;101181.91;10416156;28;20101;-79
2023/07/20 19:52:51;;;;;;;9.85;7.25;;;;;;;14.97;100.00;101173.41;10421111;28;20032;-78
2023/07/20 19:57:52;;;;;;;9.23;7.70;;;;;;;14.75;100.00;101166.50;10403156;28;20049;-78
2023/07/20 20:02:52;;;;;;;12.18;7.93;;;;;;;14.53;100.00;101170.97;10419600;28;20037;-80
2023/07/20 20:07:53;;;;;;;12.95;8.68;;;;;;;14.51;100.00;101184.91;10431396;28;20041;-81
2023/07/20 20:12:53;;;;;;;10.95;7.78;;;;;;;14.49;100.00;101178.69;10434315;28;20383;-80
2023/07/20 20:17:55;;;;;;;11.35;9.50;;;;;;;14.40;100.00;101174.00;10399585;28;20077;-80
2023/07/20 20:22:56;;;;;;;11.27;7.97;;;;;;;14.34;100.00;101164.13;10407512;28;20033;-79
2023/07/20 20:27:56;;;;;;;11.02;8.05;;;;;;;14.42;100.00;101195.09;10414472;28;20386;-78
2023/07/20 20:32:58;;;;;;;10.93;8.57;;;;;;;14.44;100.00;101209.22;10422305;28;20498;-79
2023/07/20 20:37:58;;;;;;;10.93;7.95;;;;;;;14.35;100.00;101208.03;10419215;28;20071;-79
2023/07/20 20:42:59;;;;;;;8.25;6.50;;;;;;;14.24;100.00;101183.97;10421927;28;20055;-79
2023/07/20 20:48:04;;;;;;;6.90;5.38;;;;;;;14.14;100.00;101176.56;10434186;28;20131;-81
2023/07/20 20:53:05;;;;;;;8.38;5.97;;;;;;;14.09;100.00;101168.47;10401327;28;20025;-81
2023/07/20 20:58:06;;;;;;;8.93;6.82;;;;;;;14.08;100.00;101174.56;10424320;28;20052;-81
2023/07/20 21:03:06;;;;;;;10.38;8.52;;;;;;;14.15;100.00;101185.31;10410962;28;22818;-79
2023/07/20 21:08:07;;;;;;;9.65;7.60;;;;;;;14.19;100.00;101182.88;10417443;28;20083;-78
2023/07/20 21:13:07;;;;;;;8.02;7.05;;;;;;;14.16;100.00;101184.50;10410224;28;20045;-78
2023/07/20 21:18:08;;;;;;;10.88;7.70;;;;;;;14.10;100.00;101179.91;10432868;28;20037;-79
2023/07/20 21:23:09;;;;;;;9.77;8.32;;;;;;;14.01;100.00;101176.91;10429149;28;20478;-80
2023/07/20 21:28:09;;;;;;;8.52;6.70;;;;;;;13.89;100.00;101185.22;10423645;28;20041;-81
2023/07/20 21:33:12;;;;;;;10.48;8.32;;;;;;;13.69;100.00;101181.81;10410236;28;20576;-80
2023/07/20 21:38:13;;;;;;;12.75;9.00;;;;;;;13.49;100.00;101177.53;10410900;28;20517;-82
2023/07/20 21:43:14;;;;;;;13.57;10.02;;;;;;;13.31;100.00;101172.41;10409066;28;20044;-79
2023/07/20 21:48:14;;;;;;;10.40;8.73;;;;;;;13.07;100.00;101173.16;10425470;28;20137;-78
2023/07/20 21:53:15;;;;;;;11.57;9.40;;;;;;;12.82;100.00;101179.09;10424546;28;20069;-79
2023/07/20 21:58:19;;;;;;;16.83;9.37;;;;;;;12.65;100.00;101175.75;10430120;28;20063;-78
2023/07/20 22:03:20;;;;;;;10.98;8.75;;;;;;;12.55;100.00;101184.03;10432056;28;20500;-79
2023/07/20 22:08:21;;;;;;;14.90;10.82;;;;;;;12.42;100.00;101177.31;10415045;28;20049;-79
2023/07/20 22:13:21;;;;;;;12.60;10.93;;;;;;;12.28;100.00;101180.22;10420837;28;20128;-79
2023/07/20 22:18:22;;;;;;;12.57;10.95;;;;;;;12.15;100.00;101175.22;10433595;28;20447;-80
2023/07/20 22:23:23;;;;;;;17.25;11.00;;;;;;;12.07;100.00;101174.91;10441236;28;20644;-80
2023/07/20 22:28:23;;;;;;;14.57;12.23;;;;;;;11.94;100.00;101175.13;10426626;28;20037;-80
2023/07/20 22:33:26;;;;;;;13.98;10.65;;;;;;;11.89;100.00;101174.88;10426870;28;20033;-80
2023/07/20 22:38:27;;;;;;;15.20;11.43;;;;;;;11.76;100.00;101168.19;10426032;28;20123;-80
2023/07/20 22:43:28;;;;;;;12.00;10.10;;;;;;;11.56;100.00;101162.88;10432216;28;20095;-80
2023/07/20 22:48:28;;;;;;;16.17;12.73;;;;;;;11.44;100.00;101162.28;10417522;28;21730;-80